sensor_id;sensor_type;location;lat;lon;timestamp;P1;durP1;ratioP1;P2;durP2;ratioP2
64597;SDS011;51004;54.692;9.332;2023-06-04T00:00:50;11.18;;;3.47;;
64597;SDS011;51004;54.692;9.332;2023-06-04T00:03:16;6.72;;;2.85;;
64597;SDS011;51004;54.692;9.332;2023-06-04T00:05:42;5.95;;;2.90;;
64597;SDS011;51004;54.692;9.332;2023-06-04T00:08:08;9.50;;;3.15;;
64597;SDS011;51004;54.692;9.332;2023-06-04T00:10:34;8.20;;;3.10;;
64597;SDS011;51004;54.692;9.332;2023-06-04T00:13:00;7.85;;;2.97;;
64597;SDS011;51004;54.692;9.332;2023-06-04T00:15:26;8.02;;;2.63;;
64597;SDS011;51004;54.692;9.332;2023-06-04T00:17:52;8.90;;;2.60;;
64597;SDS011;51004;54.692;9.332;2023-06-04T00:20:19;11.00;;;3.33;;
64597;SDS011;51004;54.692;9.332;2023-06-04T00:22:45;11.27;;;3.63;;
64597;SDS011;51004;54.692;9.332;2023-06-04T00:25:11;7.10;;;3.05;;
64597;SDS011;51004;54.692;9.332;2023-06-04T00:27:37;7.63;;;2.80;;
64597;SDS011;51004;54.692;9.332;2023-06-04T00:30:03;7.65;;;2.80;;
64597;SDS011;51004;54.692;9.332;2023-06-04T00:32:29;7.35;;;2.88;;
64597;SDS011;51004;54.692;9.332;2023-06-04T00:34:55;9.23;;;3.35;;
64597;SDS011;51004;54.692;9.332;2023-06-04T00:37:25;10.27;;;2.92;;
64597;SDS011;51004;54.692;9.332;2023-06-04T00:39:51;10.05;;;3.58;;
64597;SDS011;51004;54.692;9.332;2023-06-04T00:42:17;8.52;;;3.42;;
64597;SDS011;51004;54.692;9.332;2023-06-04T00:44:43;8.75;;;3.08;;
64597;SDS011;51004;54.692;9.332;2023-06-04T00:47:13;12.55;;;3.45;;
64597;SDS011;51004;54.692;9.332;2023-06-04T00:49:40;12.95;;;3.40;;
64597;SDS011;51004;54.692;9.332;2023-06-04T00:52:09;9.10;;;3.38;;
64597;SDS011;51004;54.692;9.332;2023-06-04T00:54:36;8.82;;;2.70;;
64597;SDS011;51004;54.692;9.332;2023-06-04T00:57:03;9.25;;;3.10;;
64597;SDS011;51004;54.692;9.332;2023-06-04T00:59:29;6.70;;;3.03;;
64597;SDS011;51004;54.692;9.332;2023-06-04T01:02:01;10.18;;;3.00;;
64597;SDS011;51004;54.692;9.332;2023-06-04T01:04:34;10.88;;;2.90;;
64597;SDS011;51004;54.692;9.332;2023-06-04T01:07:03;11.38;;;3.08;;
64597;SDS011;51004;54.692;9.332;2023-06-04T01:09:30;11.48;;;3.08;;
64597;SDS011;51004;54.692;9.332;2023-06-04T01:11:56;7.45;;;2.90;;
64597;SDS011;51004;54.692;9.332;2023-06-04T01:14:23;8.15;;;3.08;;
64597;SDS011;51004;54.692;9.332;2023-06-04T01:17:01;8.70;;;2.97;;
64597;SDS011;51004;54.692;9.332;2023-06-04T01:22:02;10.02;;;3.72;;
64597;SDS011;51004;54.692;9.332;2023-06-04T01:24:28;10.20;;;3.45;;
64597;SDS011;51004;54.692;9.332;2023-06-04T01:26:57;11.25;;;3.50;;
64597;SDS011;51004;54.692;9.332;2023-06-04T01:29:23;7.55;;;3.25;;
64597;SDS011;51004;54.692;9.332;2023-06-04T01:31:50;7.88;;;3.17;;
64597;SDS011;51004;54.692;9.332;2023-06-04T01:34:17;9.02;;;3.58;;
64597;SDS011;51004;54.692;9.332;2023-06-04T01:36:43;12.05;;;3.70;;
64597;SDS011;51004;54.692;9.332;2023-06-04T01:39:09;10.98;;;3.42;;
64597;SDS011;51004;54.692;9.332;2023-06-04T01:41:35;8.95;;;4.05;;
64597;SDS011;51004;54.692;9.332;2023-06-04T01:44:01;11.52;;;3.53;;
64597;SDS011;51004;54.692;9.332;2023-06-04T01:46:27;10.82;;;3.53;;
64597;SDS011;51004;54.692;9.332;2023-06-04T01:48:53;7.32;;;3.08;;
64597;SDS011;51004;54.692;9.332;2023-06-04T01:51:19;7.88;;;3.08;;
64597;SDS011;51004;54.692;9.332;2023-06-04T01:53:45;7.90;;;3.25;;
64597;SDS011;51004;54.692;9.332;2023-06-04T01:56:11;9.93;;;2.92;;
64597;SDS011;51004;54.692;9.332;2023-06-04T01:58:38;10.20;;;2.85;;
64597;SDS011;51004;54.692;9.332;2023-06-04T02:01:04;8.77;;;3.00;;
64597;SDS011;51004;54.692;9.332;2023-06-04T02:03:30;8.77;;;3.15;;
64597;SDS011;51004;54.692;9.332;2023-06-04T02:06:02;6.85;;;2.55;;
64597;SDS011;51004;54.692;9.332;2023-06-04T02:08:29;6.78;;;2.75;;
64597;SDS011;51004;54.692;9.332;2023-06-04T02:10:55;10.05;;;2.97;;
64597;SDS011;51004;54.692;9.332;2023-06-04T02:13:21;7.20;;;3.17;;
64597;SDS011;51004;54.692;9.332;2023-06-04T02:15:47;4.35;;;2.65;;
64597;SDS011;51004;54.692;9.332;2023-06-04T02:18:22;8.45;;;2.70;;
64597;SDS011;51004;54.692;9.332;2023-06-04T02:20:49;8.95;;;2.60;;
64597;SDS011;51004;54.692;9.332;2023-06-04T02:23:16;8.57;;;3.58;;
64597;SDS011;51004;54.692;9.332;2023-06-04T02:25:43;5.22;;;2.83;;
64597;SDS011;51004;54.692;9.332;2023-06-04T02:28:10;7.57;;;3.53;;
64597;SDS011;51004;54.692;9.332;2023-06-04T02:30:36;10.63;;;3.90;;
64597;SDS011;51004;54.692;9.332;2023-06-04T02:33:02;7.10;;;3.60;;
64597;SDS011;51004;54.692;9.332;2023-06-04T02:35:29;6.65;;;3.42;;
64597;SDS011;51004;54.692;9.332;2023-06-04T02:37:55;6.05;;;3.10;;
64597;SDS011;51004;54.692;9.332;2023-06-04T02:40:23;7.20;;;3.05;;
64597;SDS011;51004;54.692;9.332;2023-06-04T02:42:50;8.20;;;2.97;;
64597;SDS011;51004;54.692;9.332;2023-06-04T02:45:16;9.82;;;3.58;;
64597;SDS011;51004;54.692;9.332;2023-06-04T02:47:43;8.02;;;3.60;;
64597;SDS011;51004;54.692;9.332;2023-06-04T02:50:09;10.73;;;3.75;;
64597;SDS011;51004;54.692;9.332;2023-06-04T02:52:35;7.45;;;3.38;;
64597;SDS011;51004;54.692;9.332;2023-06-04T02:55:05;6.30;;;3.25;;
64597;SDS011;51004;54.692;9.332;2023-06-04T02:57:31;7.75;;;3.50;;
64597;SDS011;51004;54.692;9.332;2023-06-04T02:59:58;8.05;;;3.00;;
64597;SDS011;51004;54.692;9.332;2023-06-04T03:02:24;8.23;;;3.40;;
64597;SDS011;51004;54.692;9.332;2023-06-04T03:04:51;6.60;;;3.08;;
64597;SDS011;51004;54.692;9.332;2023-06-04T03:07:17;5.82;;;3.00;;
64597;SDS011;51004;54.692;9.332;2023-06-04T03:09:48;4.47;;;2.97;;
64597;SDS011;51004;54.692;9.332;2023-06-04T03:12:14;6.50;;;3.15;;
64597;SDS011;51004;54.692;9.332;2023-06-04T03:14:40;5.32;;;3.00;;
64597;SDS011;51004;54.692;9.332;2023-06-04T03:17:06;6.30;;;2.83;;
64597;SDS011;51004;54.692;9.332;2023-06-04T03:19:38;7.15;;;3.40;;
64597;SDS011;51004;54.692;9.332;2023-06-04T03:22:05;6.55;;;3.03;;
64597;SDS011;51004;54.692;9.332;2023-06-04T03:24:35;6.90;;;3.10;;
64597;SDS011;51004;54.692;9.332;2023-06-04T03:27:02;5.90;;;3.20;;
64597;SDS011;51004;54.692;9.332;2023-06-04T03:29:29;5.35;;;3.03;;
64597;SDS011;51004;54.692;9.332;2023-06-04T03:31:58;6.10;;;2.92;;
64597;SDS011;51004;54.692;9.332;2023-06-04T03:34:24;5.80;;;3.50;;
64597;SDS011;51004;54.692;9.332;2023-06-04T03:36:51;7.50;;;3.72;;
64597;SDS011;51004;54.692;9.332;2023-06-04T03:39:17;4.78;;;2.88;;
64597;SDS011;51004;54.692;9.332;2023-06-04T03:41:43;7.22;;;3.38;;
64597;SDS011;51004;54.692;9.332;2023-06-04T03:44:09;6.63;;;3.13;;
64597;SDS011;51004;54.692;9.332;2023-06-04T03:46:35;6.97;;;3.40;;
64597;SDS011;51004;54.692;9.332;2023-06-04T03:49:02;6.18;;;3.05;;
64597;SDS011;51004;54.692;9.332;2023-06-04T03:51:28;9.43;;;3.20;;
64597;SDS011;51004;54.692;9.332;2023-06-04T03:53:54;7.93;;;3.50;;
64597;SDS011;51004;54.692;9.332;2023-06-04T03:56:20;6.95;;;3.42;;
64597;SDS011;51004;54.692;9.332;2023-06-04T03:58:46;6.75;;;3.63;;
64597;SDS011;51004;54.692;9.332;2023-06-04T04:01:12;7.93;;;3.45;;
64597;SDS011;51004;54.692;9.332;2023-06-04T04:03:39;5.85;;;3.03;;
64597;SDS011;51004;54.692;9.332;2023-06-04T04:06:05;7.68;;;3.22;;
64597;SDS011;51004;54.692;9.332;2023-06-04T04:08:31;5.65;;;3.30;;
64597;SDS011;51004;54.692;9.332;2023-06-04T04:10:59;9.50;;;3.67;;
64597;SDS011;51004;54.692;9.332;2023-06-04T04:13:25;10.32;;;3.92;;
64597;SDS011;51004;54.692;9.332;2023-06-04T04:18:33;5.82;;;3.20;;
64597;SDS011;51004;54.692;9.332;2023-06-04T04:20:59;4.55;;;3.30;;
64597;SDS011;51004;54.692;9.332;2023-06-04T04:23:26;5.78;;;3.22;;
64597;SDS011;51004;54.692;9.332;2023-06-04T04:25:52;8.40;;;3.58;;
64597;SDS011;51004;54.692;9.332;2023-06-04T04:28:18;6.00;;;3.15;;
64597;SDS011;51004;54.692;9.332;2023-06-04T04:30:45;5.82;;;3.58;;
64597;SDS011;51004;54.692;9.332;2023-06-04T04:33:13;6.22;;;4.03;;
64597;SDS011;51004;54.692;9.332;2023-06-04T04:35:41;7.05;;;3.70;;
64597;SDS011;51004;54.692;9.332;2023-06-04T04:38:10;8.55;;;3.67;;
64597;SDS011;51004;54.692;9.332;2023-06-04T04:40:36;11.18;;;5.05;;
64597;SDS011;51004;54.692;9.332;2023-06-04T04:43:02;10.45;;;4.20;;
64597;SDS011;51004;54.692;9.332;2023-06-04T04:45:28;10.23;;;4.63;;
64597;SDS011;51004;54.692;9.332;2023-06-04T04:47:54;8.82;;;4.43;;
64597;SDS011;51004;54.692;9.332;2023-06-04T04:50:20;8.68;;;3.97;;
64597;SDS011;51004;54.692;9.332;2023-06-04T04:52:46;10.57;;;4.07;;
64597;SDS011;51004;54.692;9.332;2023-06-04T04:55:12;13.90;;;5.00;;
64597;SDS011;51004;54.692;9.332;2023-06-04T04:57:38;10.68;;;4.47;;
64597;SDS011;51004;54.692;9.332;2023-06-04T05:00:05;12.93;;;4.35;;
64597;SDS011;51004;54.692;9.332;2023-06-04T05:02:34;9.57;;;4.75;;
64597;SDS011;51004;54.692;9.332;2023-06-04T05:05:00;12.32;;;4.63;;
64597;SDS011;51004;54.692;9.332;2023-06-04T05:07:26;13.85;;;4.53;;
64597;SDS011;51004;54.692;9.332;2023-06-04T05:09:52;11.88;;;5.43;;
64597;SDS011;51004;54.692;9.332;2023-06-04T05:12:18;11.13;;;4.68;;
64597;SDS011;51004;54.692;9.332;2023-06-04T05:14:44;9.60;;;4.63;;
64597;SDS011;51004;54.692;9.332;2023-06-04T05:17:11;15.60;;;5.38;;
64597;SDS011;51004;54.692;9.332;2023-06-04T05:19:38;12.05;;;5.35;;
64597;SDS011;51004;54.692;9.332;2023-06-04T05:22:04;14.65;;;4.95;;
64597;SDS011;51004;54.692;9.332;2023-06-04T05:24:33;11.45;;;4.75;;
64597;SDS011;51004;54.692;9.332;2023-06-04T05:27:00;10.38;;;4.68;;
64597;SDS011;51004;54.692;9.332;2023-06-04T05:29:26;13.07;;;4.97;;
64597;SDS011;51004;54.692;9.332;2023-06-04T05:31:52;11.15;;;4.45;;
64597;SDS011;51004;54.692;9.332;2023-06-04T05:34:19;9.93;;;4.82;;
64597;SDS011;51004;54.692;9.332;2023-06-04T05:36:46;8.85;;;4.70;;
64597;SDS011;51004;54.692;9.332;2023-06-04T05:39:12;10.18;;;5.03;;
64597;SDS011;51004;54.692;9.332;2023-06-04T05:41:39;14.52;;;4.90;;
64597;SDS011;51004;54.692;9.332;2023-06-04T05:44:05;11.38;;;4.45;;
64597;SDS011;51004;54.692;9.332;2023-06-04T05:46:31;10.52;;;4.70;;
64597;SDS011;51004;54.692;9.332;2023-06-04T05:51:27;10.13;;;4.70;;
64597;SDS011;51004;54.692;9.332;2023-06-04T05:53:53;12.32;;;4.88;;
64597;SDS011;51004;54.692;9.332;2023-06-04T05:56:21;14.48;;;5.28;;
64597;SDS011;51004;54.692;9.332;2023-06-04T05:58:53;12.40;;;4.68;;
64597;SDS011;51004;54.692;9.332;2023-06-04T06:01:23;14.85;;;4.85;;
64597;SDS011;51004;54.692;9.332;2023-06-04T06:03:49;14.30;;;4.07;;
64597;SDS011;51004;54.692;9.332;2023-06-04T06:06:18;6.93;;;2.88;;
64597;SDS011;51004;54.692;9.332;2023-06-04T06:08:45;12.65;;;4.47;;
64597;SDS011;51004;54.692;9.332;2023-06-04T06:11:11;9.38;;;3.58;;
64597;SDS011;51004;54.692;9.332;2023-06-04T06:13:37;11.95;;;2.85;;
64597;SDS011;51004;54.692;9.332;2023-06-04T06:16:04;7.38;;;2.92;;
64597;SDS011;51004;54.692;9.332;2023-06-04T06:18:29;9.70;;;2.85;;
64597;SDS011;51004;54.692;9.332;2023-06-04T06:20:58;7.63;;;2.75;;
64597;SDS011;51004;54.692;9.332;2023-06-04T06:23:24;12.45;;;2.97;;
64597;SDS011;51004;54.692;9.332;2023-06-04T06:25:50;10.32;;;2.50;;
64597;SDS011;51004;54.692;9.332;2023-06-04T06:28:17;9.20;;;3.58;;
64597;SDS011;51004;54.692;9.332;2023-06-04T06:30:43;9.55;;;2.95;;
64597;SDS011;51004;54.692;9.332;2023-06-04T06:33:09;7.50;;;2.47;;
64597;SDS011;51004;54.692;9.332;2023-06-04T06:35:35;8.55;;;2.88;;
64597;SDS011;51004;54.692;9.332;2023-06-04T06:38:01;10.23;;;3.17;;
64597;SDS011;51004;54.692;9.332;2023-06-04T06:40:27;9.35;;;2.85;;
64597;SDS011;51004;54.692;9.332;2023-06-04T06:42:55;5.13;;;2.58;;
64597;SDS011;51004;54.692;9.332;2023-06-04T06:45:21;7.15;;;2.53;;
64597;SDS011;51004;54.692;9.332;2023-06-04T06:47:47;8.45;;;2.80;;
64597;SDS011;51004;54.692;9.332;2023-06-04T06:50:13;10.15;;;3.28;;
64597;SDS011;51004;54.692;9.332;2023-06-04T06:52:39;10.25;;;2.80;;
64597;SDS011;51004;54.692;9.332;2023-06-04T06:55:05;8.98;;;2.97;;
64597;SDS011;51004;54.692;9.332;2023-06-04T06:57:32;9.27;;;3.15;;
64597;SDS011;51004;54.692;9.332;2023-06-04T06:59:58;7.95;;;2.85;;
64597;SDS011;51004;54.692;9.332;2023-06-04T07:02:24;9.27;;;3.35;;
64597;SDS011;51004;54.692;9.332;2023-06-04T07:04:50;6.90;;;2.85;;
64597;SDS011;51004;54.692;9.332;2023-06-04T07:07:16;5.63;;;2.65;;
64597;SDS011;51004;54.692;9.332;2023-06-04T07:09:42;9.88;;;3.15;;
64597;SDS011;51004;54.692;9.332;2023-06-04T07:12:13;8.95;;;3.22;;
64597;SDS011;51004;54.692;9.332;2023-06-04T07:14:39;9.93;;;3.42;;
64597;SDS011;51004;54.692;9.332;2023-06-04T07:17:15;12.00;;;3.03;;
64597;SDS011;51004;54.692;9.332;2023-06-04T07:19:42;10.18;;;3.20;;
64597;SDS011;51004;54.692;9.332;2023-06-04T07:22:08;7.63;;;3.25;;
64597;SDS011;51004;54.692;9.332;2023-06-04T07:24:41;9.50;;;3.13;;
64597;SDS011;51004;54.692;9.332;2023-06-04T07:27:11;10.13;;;3.03;;
64597;SDS011;51004;54.692;9.332;2023-06-04T07:29:37;7.25;;;2.85;;
64597;SDS011;51004;54.692;9.332;2023-06-04T07:32:03;8.45;;;3.03;;
64597;SDS011;51004;54.692;9.332;2023-06-04T07:34:30;8.63;;;2.90;;
64597;SDS011;51004;54.692;9.332;2023-06-04T07:36:56;11.35;;;3.13;;
64597;SDS011;51004;54.692;9.332;2023-06-04T07:39:22;6.43;;;2.65;;
64597;SDS011;51004;54.692;9.332;2023-06-04T07:41:48;9.35;;;2.78;;
64597;SDS011;51004;54.692;9.332;2023-06-04T07:44:14;7.90;;;2.47;;
64597;SDS011;51004;54.692;9.332;2023-06-04T07:46:40;12.07;;;4.55;;
64597;SDS011;51004;54.692;9.332;2023-06-04T07:49:06;10.10;;;2.63;;
64597;SDS011;51004;54.692;9.332;2023-06-04T07:51:32;8.25;;;2.63;;
64597;SDS011;51004;54.692;9.332;2023-06-04T07:53:58;10.10;;;2.63;;
64597;SDS011;51004;54.692;9.332;2023-06-04T07:56:25;6.93;;;2.80;;
64597;SDS011;51004;54.692;9.332;2023-06-04T07:58:51;7.00;;;2.88;;
64597;SDS011;51004;54.692;9.332;2023-06-04T08:01:17;6.88;;;2.15;;
64597;SDS011;51004;54.692;9.332;2023-06-04T08:03:43;9.82;;;3.15;;
64597;SDS011;51004;54.692;9.332;2023-06-04T08:06:09;6.18;;;2.92;;
64597;SDS011;51004;54.692;9.332;2023-06-04T08:08:35;5.60;;;2.42;;
64597;SDS011;51004;54.692;9.332;2023-06-04T08:11:01;7.22;;;2.90;;
64597;SDS011;51004;54.692;9.332;2023-06-04T08:13:28;5.90;;;2.80;;
64597;SDS011;51004;54.692;9.332;2023-06-04T08:15:54;7.22;;;2.90;;
64597;SDS011;51004;54.692;9.332;2023-06-04T08:18:20;8.02;;;3.03;;
64597;SDS011;51004;54.692;9.332;2023-06-04T08:20:46;10.70;;;3.00;;
64597;SDS011;51004;54.692;9.332;2023-06-04T08:23:12;8.40;;;2.72;;
64597;SDS011;51004;54.692;9.332;2023-06-04T08:25:38;12.45;;;3.58;;
64597;SDS011;51004;54.692;9.332;2023-06-04T08:28:04;8.02;;;2.80;;
64597;SDS011;51004;54.692;9.332;2023-06-04T08:30:30;6.80;;;2.50;;
64597;SDS011;51004;54.692;9.332;2023-06-04T08:33:00;8.25;;;2.55;;
64597;SDS011;51004;54.692;9.332;2023-06-04T08:35:26;8.32;;;2.78;;
64597;SDS011;51004;54.692;9.332;2023-06-04T08:37:52;6.95;;;1.98;;
64597;SDS011;51004;54.692;9.332;2023-06-04T08:40:18;7.43;;;2.60;;
64597;SDS011;51004;54.692;9.332;2023-06-04T08:42:45;6.65;;;2.40;;
64597;SDS011;51004;54.692;9.332;2023-06-04T08:45:12;7.30;;;2.42;;
64597;SDS011;51004;54.692;9.332;2023-06-04T08:47:48;6.65;;;2.42;;
64597;SDS011;51004;54.692;9.332;2023-06-04T08:50:15;12.18;;;2.72;;
64597;SDS011;51004;54.692;9.332;2023-06-04T08:52:42;4.20;;;2.20;;
64597;SDS011;51004;54.692;9.332;2023-06-04T08:55:08;11.85;;;3.08;;
64597;SDS011;51004;54.692;9.332;2023-06-04T08:57:34;6.50;;;2.70;;
64597;SDS011;51004;54.692;9.332;2023-06-04T09:00:01;6.97;;;2.13;;
64597;SDS011;51004;54.692;9.332;2023-06-04T09:02:29;4.93;;;2.40;;
64597;SDS011;51004;54.692;9.332;2023-06-04T09:04:55;4.40;;;2.10;;
64597;SDS011;51004;54.692;9.332;2023-06-04T09:07:22;9.75;;;2.63;;
64597;SDS011;51004;54.692;9.332;2023-06-04T09:09:48;8.25;;;2.35;;
64597;SDS011;51004;54.692;9.332;2023-06-04T09:12:21;7.07;;;2.20;;
64597;SDS011;51004;54.692;9.332;2023-06-04T09:14:50;8.73;;;2.20;;
64597;SDS011;51004;54.692;9.332;2023-06-04T09:17:20;5.65;;;2.50;;
64597;SDS011;51004;54.692;9.332;2023-06-04T09:19:47;7.20;;;2.20;;
64597;SDS011;51004;54.692;9.332;2023-06-04T09:22:13;5.72;;;2.10;;
64597;SDS011;51004;54.692;9.332;2023-06-04T09:24:40;9.18;;;3.05;;
64597;SDS011;51004;54.692;9.332;2023-06-04T09:27:16;7.60;;;2.60;;
64597;SDS011;51004;54.692;9.332;2023-06-04T09:32:35;7.72;;;2.28;;
64597;SDS011;51004;54.692;9.332;2023-06-04T09:35:20;8.98;;;2.58;;
64597;SDS011;51004;54.692;9.332;2023-06-04T09:37:55;6.28;;;2.40;;
64597;SDS011;51004;54.692;9.332;2023-06-04T09:40:23;9.40;;;2.83;;
64597;SDS011;51004;54.692;9.332;2023-06-04T09:42:52;10.07;;;2.60;;
64597;SDS011;51004;54.692;9.332;2023-06-04T09:45:26;10.25;;;3.38;;
64597;SDS011;51004;54.692;9.332;2023-06-04T09:48:02;8.57;;;2.92;;
64597;SDS011;51004;54.692;9.332;2023-06-04T09:50:36;12.00;;;3.23;;
64597;SDS011;51004;54.692;9.332;2023-06-04T09:53:19;9.63;;;2.97;;
64597;SDS011;51004;54.692;9.332;2023-06-04T09:55:57;11.52;;;3.20;;
64597;SDS011;51004;54.692;9.332;2023-06-04T09:58:34;9.23;;;2.78;;
64597;SDS011;51004;54.692;9.332;2023-06-04T10:01:04;9.10;;;2.92;;
64597;SDS011;51004;54.692;9.332;2023-06-04T10:03:31;6.47;;;2.75;;
64597;SDS011;51004;54.692;9.332;2023-06-04T10:05:59;6.50;;;2.65;;
64597;SDS011;51004;54.692;9.332;2023-06-04T10:08:32;9.38;;;2.83;;
64597;SDS011;51004;54.692;9.332;2023-06-04T10:11:00;9.95;;;3.17;;
64597;SDS011;51004;54.692;9.332;2023-06-04T10:13:27;9.43;;;2.60;;
64597;SDS011;51004;54.692;9.332;2023-06-04T10:15:56;8.25;;;2.75;;
64597;SDS011;51004;54.692;9.332;2023-06-04T10:18:23;12.05;;;4.43;;
64597;SDS011;51004;54.692;9.332;2023-06-04T10:20:49;5.68;;;2.65;;
64597;SDS011;51004;54.692;9.332;2023-06-04T10:23:15;5.57;;;2.42;;
64597;SDS011;51004;54.692;9.332;2023-06-04T10:25:44;5.65;;;2.90;;
64597;SDS011;51004;54.692;9.332;2023-06-04T10:28:12;10.68;;;3.10;;
64597;SDS011;51004;54.692;9.332;2023-06-04T10:30:38;4.07;;;1.95;;
64597;SDS011;51004;54.692;9.332;2023-06-04T10:33:04;3.47;;;2.03;;
64597;SDS011;51004;54.692;9.332;2023-06-04T10:35:31;3.80;;;2.10;;
64597;SDS011;51004;54.692;9.332;2023-06-04T10:38:04;4.95;;;2.20;;
64597;SDS011;51004;54.692;9.332;2023-06-04T10:40:31;5.10;;;2.20;;
64597;SDS011;51004;54.692;9.332;2023-06-04T10:43:03;4.57;;;2.22;;
64597;SDS011;51004;54.692;9.332;2023-06-04T10:45:29;4.00;;;2.00;;
64597;SDS011;51004;54.692;9.332;2023-06-04T10:47:59;7.85;;;2.40;;
64597;SDS011;51004;54.692;9.332;2023-06-04T10:50:25;4.57;;;2.05;;
64597;SDS011;51004;54.692;9.332;2023-06-04T10:52:52;4.07;;;1.80;;
64597;SDS011;51004;54.692;9.332;2023-06-04T10:58:18;5.35;;;2.47;;
64597;SDS011;51004;54.692;9.332;2023-06-04T11:00:51;4.68;;;2.20;;
64597;SDS011;51004;54.692;9.332;2023-06-04T11:03:20;5.65;;;2.30;;
64597;SDS011;51004;54.692;9.332;2023-06-04T11:05:49;6.55;;;2.65;;
64597;SDS011;51004;54.692;9.332;2023-06-04T11:08:25;5.75;;;2.25;;
64597;SDS011;51004;54.692;9.332;2023-06-04T11:10:53;5.65;;;2.22;;
64597;SDS011;51004;54.692;9.332;2023-06-04T11:13:22;6.65;;;2.50;;
64597;SDS011;51004;54.692;9.332;2023-06-04T11:15:49;5.28;;;2.17;;
64597;SDS011;51004;54.692;9.332;2023-06-04T11:18:16;4.28;;;2.10;;
64597;SDS011;51004;54.692;9.332;2023-06-04T11:20:46;7.20;;;2.40;;
64597;SDS011;51004;54.692;9.332;2023-06-04T11:23:13;3.90;;;2.03;;
64597;SDS011;51004;54.692;9.332;2023-06-04T11:28:25;7.10;;;2.45;;
64597;SDS011;51004;54.692;9.332;2023-06-04T11:31:00;5.95;;;2.88;;
64597;SDS011;51004;54.692;9.332;2023-06-04T11:33:45;5.90;;;2.90;;
64597;SDS011;51004;54.692;9.332;2023-06-04T11:36:30;5.05;;;2.72;;
64597;SDS011;51004;54.692;9.332;2023-06-04T11:39:01;4.55;;;2.22;;
64597;SDS011;51004;54.692;9.332;2023-06-04T11:41:30;6.00;;;2.17;;
64597;SDS011;51004;54.692;9.332;2023-06-04T11:43:57;6.18;;;1.83;;
64597;SDS011;51004;54.692;9.332;2023-06-04T11:46:23;5.47;;;2.33;;
64597;SDS011;51004;54.692;9.332;2023-06-04T11:48:51;2.67;;;1.73;;
64597;SDS011;51004;54.692;9.332;2023-06-04T11:51:19;3.70;;;1.70;;
64597;SDS011;51004;54.692;9.332;2023-06-04T11:53:45;4.85;;;2.17;;
64597;SDS011;51004;54.692;9.332;2023-06-04T11:56:11;4.70;;;2.20;;
64597;SDS011;51004;54.692;9.332;2023-06-04T11:58:38;3.08;;;1.80;;
64597;SDS011;51004;54.692;9.332;2023-06-04T12:01:05;4.60;;;2.28;;
64597;SDS011;51004;54.692;9.332;2023-06-04T12:03:40;3.20;;;1.90;;
64597;SDS011;51004;54.692;9.332;2023-06-04T12:06:10;3.45;;;1.58;;
64597;SDS011;51004;54.692;9.332;2023-06-04T12:11:24;3.28;;;1.90;;
64597;SDS011;51004;54.692;9.332;2023-06-04T12:13:51;5.88;;;2.20;;
64597;SDS011;51004;54.692;9.332;2023-06-04T12:16:17;3.70;;;1.80;;
64597;SDS011;51004;54.692;9.332;2023-06-04T12:18:43;3.67;;;2.00;;
64597;SDS011;51004;54.692;9.332;2023-06-04T12:21:24;4.95;;;2.50;;
64597;SDS011;51004;54.692;9.332;2023-06-04T12:23:54;4.30;;;2.03;;
64597;SDS011;51004;54.692;9.332;2023-06-04T12:26:23;3.45;;;2.10;;
64597;SDS011;51004;54.692;9.332;2023-06-04T12:31:39;4.10;;;1.67;;
64597;SDS011;51004;54.692;9.332;2023-06-04T12:34:05;4.10;;;1.88;;
64597;SDS011;51004;54.692;9.332;2023-06-04T12:36:31;3.42;;;1.90;;
64597;SDS011;51004;54.692;9.332;2023-06-04T12:39:00;4.32;;;2.10;;
64597;SDS011;51004;54.692;9.332;2023-06-04T12:41:27;5.00;;;2.17;;
64597;SDS011;51004;54.692;9.332;2023-06-04T12:43:58;5.57;;;2.40;;
64597;SDS011;51004;54.692;9.332;2023-06-04T12:46:25;4.45;;;2.67;;
64597;SDS011;51004;54.692;9.332;2023-06-04T12:48:51;6.30;;;2.65;;
64597;SDS011;51004;54.692;9.332;2023-06-04T12:51:17;4.45;;;2.65;;
64597;SDS011;51004;54.692;9.332;2023-06-04T12:53:44;5.47;;;2.65;;
64597;SDS011;51004;54.692;9.332;2023-06-04T12:56:10;4.80;;;2.00;;
64597;SDS011;51004;54.692;9.332;2023-06-04T12:58:36;6.55;;;2.53;;
64597;SDS011;51004;54.692;9.332;2023-06-04T13:04:02;10.15;;;2.63;;
64597;SDS011;51004;54.692;9.332;2023-06-04T13:06:28;7.05;;;2.70;;
64597;SDS011;51004;54.692;9.332;2023-06-04T13:08:54;7.90;;;2.38;;
64597;SDS011;51004;54.692;9.332;2023-06-04T13:11:20;5.72;;;2.80;;
64597;SDS011;51004;54.692;9.332;2023-06-04T13:13:46;7.18;;;3.10;;
64597;SDS011;51004;54.692;9.332;2023-06-04T13:16:12;3.30;;;1.92;;
64597;SDS011;51004;54.692;9.332;2023-06-04T13:18:38;4.50;;;2.40;;
64597;SDS011;51004;54.692;9.332;2023-06-04T13:21:05;4.07;;;2.58;;
64597;SDS011;51004;54.692;9.332;2023-06-04T13:23:31;7.10;;;2.72;;
64597;SDS011;51004;54.692;9.332;2023-06-04T13:25:57;5.50;;;2.30;;
64597;SDS011;51004;54.692;9.332;2023-06-04T13:28:23;6.57;;;2.20;;
64597;SDS011;51004;54.692;9.332;2023-06-04T13:30:51;6.68;;;2.60;;
64597;SDS011;51004;54.692;9.332;2023-06-04T13:33:22;5.43;;;2.20;;
64597;SDS011;51004;54.692;9.332;2023-06-04T13:35:48;9.85;;;2.88;;
64597;SDS011;51004;54.692;9.332;2023-06-04T13:38:15;8.60;;;2.35;;
64597;SDS011;51004;54.692;9.332;2023-06-04T13:40:41;6.55;;;2.30;;
64597;SDS011;51004;54.692;9.332;2023-06-04T13:43:08;5.05;;;2.10;;
64597;SDS011;51004;54.692;9.332;2023-06-04T13:45:34;4.13;;;2.42;;
64597;SDS011;51004;54.692;9.332;2023-06-04T13:48:00;4.57;;;2.20;;
64597;SDS011;51004;54.692;9.332;2023-06-04T13:50:30;9.20;;;2.85;;
64597;SDS011;51004;54.692;9.332;2023-06-04T13:52:56;7.45;;;2.55;;
64597;SDS011;51004;54.692;9.332;2023-06-04T13:55:23;7.47;;;2.60;;
64597;SDS011;51004;54.692;9.332;2023-06-04T13:57:49;5.18;;;2.50;;
64597;SDS011;51004;54.692;9.332;2023-06-04T14:00:15;5.78;;;2.63;;
64597;SDS011;51004;54.692;9.332;2023-06-04T14:02:41;6.68;;;2.63;;
64597;SDS011;51004;54.692;9.332;2023-06-04T14:05:07;6.32;;;2.58;;
64597;SDS011;51004;54.692;9.332;2023-06-04T14:07:33;5.70;;;2.63;;
64597;SDS011;51004;54.692;9.332;2023-06-04T14:10:00;5.97;;;2.55;;
64597;SDS011;51004;54.692;9.332;2023-06-04T14:12:26;7.50;;;2.50;;
64597;SDS011;51004;54.692;9.332;2023-06-04T14:14:52;6.07;;;2.60;;
64597;SDS011;51004;54.692;9.332;2023-06-04T14:17:18;7.03;;;3.15;;
64597;SDS011;51004;54.692;9.332;2023-06-04T14:19:44;4.55;;;2.55;;
64597;SDS011;51004;54.692;9.332;2023-06-04T14:22:10;7.03;;;3.03;;
64597;SDS011;51004;54.692;9.332;2023-06-04T14:24:37;5.07;;;2.83;;
64597;SDS011;51004;54.692;9.332;2023-06-04T14:27:03;5.13;;;2.33;;
64597;SDS011;51004;54.692;9.332;2023-06-04T14:29:29;5.43;;;2.45;;
64597;SDS011;51004;54.692;9.332;2023-06-04T14:31:55;5.85;;;2.42;;
64597;SDS011;51004;54.692;9.332;2023-06-04T14:34:21;6.65;;;2.60;;
64597;SDS011;51004;54.692;9.332;2023-06-04T14:36:47;7.88;;;2.47;;
64597;SDS011;51004;54.692;9.332;2023-06-04T14:39:13;5.60;;;2.47;;
64597;SDS011;51004;54.692;9.332;2023-06-04T14:41:39;5.65;;;2.60;;
64597;SDS011;51004;54.692;9.332;2023-06-04T14:44:05;7.40;;;2.40;;
64597;SDS011;51004;54.692;9.332;2023-06-04T14:46:31;3.95;;;2.20;;
64597;SDS011;51004;54.692;9.332;2023-06-04T14:48:57;5.38;;;3.38;;
64597;SDS011;51004;54.692;9.332;2023-06-04T14:51:23;7.47;;;2.67;;
64597;SDS011;51004;54.692;9.332;2023-06-04T14:53:49;10.20;;;2.45;;
64597;SDS011;51004;54.692;9.332;2023-06-04T14:56:19;4.05;;;2.33;;
64597;SDS011;51004;54.692;9.332;2023-06-04T14:58:45;4.55;;;2.25;;
64597;SDS011;51004;54.692;9.332;2023-06-04T15:01:11;6.40;;;2.60;;
64597;SDS011;51004;54.692;9.332;2023-06-04T15:03:40;5.22;;;2.28;;
64597;SDS011;51004;54.692;9.332;2023-06-04T15:06:06;7.72;;;2.70;;
64597;SDS011;51004;54.692;9.332;2023-06-04T15:08:32;7.90;;;2.90;;
64597;SDS011;51004;54.692;9.332;2023-06-04T15:10:58;7.05;;;3.17;;